createdAt,value
2023-09-30T00:05:16.638Z,9.77
2023-09-30T00:10:38.464Z,10.20
2023-09-30T00:16:00.293Z,9.48
2023-09-30T00:21:22.147Z,9.73
2023-09-30T00:26:44.010Z,9.82
2023-09-30T00:32:05.836Z,9.27
2023-09-30T00:37:27.659Z,9.23
2023-09-30T00:42:49.521Z,8.82
2023-09-30T00:48:11.522Z,8.98
2023-09-30T00:53:33.406Z,10.10
2023-09-30T00:58:55.228Z,10.05
2023-09-30T01:04:17.176Z,9.18
2023-09-30T01:09:39.265Z,8.82
2023-09-30T01:15:01.169Z,8.90
2023-09-30T01:20:23.050Z,8.48
2023-09-30T01:25:44.922Z,8.90
2023-09-30T01:31:06.745Z,9.55
2023-09-30T01:36:28.625Z,8.30
2023-09-30T01:41:50.480Z,8.77
2023-09-30T01:47:12.317Z,8.63
2023-09-30T01:52:34.157Z,9.20
2023-09-30T01:57:55.993Z,8.82
2023-09-30T02:03:17.961Z,7.88
2023-09-30T02:08:39.908Z,7.32
2023-09-30T02:14:01.725Z,7.78
2023-09-30T02:19:23.543Z,6.50
2023-09-30T02:24:45.417Z,6.70
2023-09-30T02:30:07.301Z,5.90
2023-09-30T02:35:29.250Z,6.15
2023-09-30T02:40:51.093Z,6.18
2023-09-30T02:46:12.969Z,6.70
2023-09-30T02:51:34.946Z,6.40
2023-09-30T02:56:56.910Z,6.18
2023-09-30T03:02:18.835Z,6.15
2023-09-30T03:07:40.698Z,7.43
2023-09-30T03:13:02.555Z,6.55
2023-09-30T03:18:24.495Z,6.68
2023-09-30T03:23:47.382Z,7.10
2023-09-30T03:29:09.251Z,6.97
2023-09-30T03:34:31.105Z,6.78
2023-09-30T03:39:55.672Z,6.07
2023-09-30T03:45:17.530Z,5.30
2023-09-30T03:50:39.388Z,5.32
2023-09-30T03:56:01.224Z,5.07
2023-09-30T04:01:23.085Z,5.68
2023-09-30T04:06:44.997Z,5.32
2023-09-30T04:12:06.871Z,5.22
2023-09-30T04:17:28.852Z,5.45
2023-09-30T04:22:50.786Z,5.97
2023-09-30T04:28:12.661Z,6.50
2023-09-30T04:33:34.589Z,5.90
2023-09-30T04:38:56.471Z,5.60
2023-09-30T04:44:18.318Z,5.40
2023-09-30T04:49:40.148Z,5.75
2023-09-30T04:55:01.989Z,7.03
2023-09-30T05:00:23.859Z,5.68
2023-09-30T05:05:45.743Z,5.80
2023-09-30T05:11:07.582Z,6.10
2023-09-30T05:16:29.453Z,6.38
2023-09-30T05:21:51.332Z,7.38
2023-09-30T05:27:13.208Z,6.60
2023-09-30T05:32:35.076Z,7.65
2023-09-30T05:37:56.928Z,6.15
2023-09-30T05:43:18.749Z,5.25
2023-09-30T05:48:40.664Z,5.22
2023-09-30T05:54:02.611Z,4.90
2023-09-30T05:59:24.449Z,3.90
2023-09-30T06:04:46.301Z,3.20
2023-09-30T06:10:08.162Z,2.72
2023-09-30T06:15:30.454Z,2.45
2023-09-30T06:20:52.419Z,1.95
2023-09-30T06:26:14.358Z,1.95
2023-09-30T06:31:36.277Z,2.40
2023-09-30T06:36:58.189Z,3.35
2023-09-30T06:42:20.083Z,3.20
2023-09-30T06:47:41.968Z,3.80
2023-09-30T06:53:03.873Z,3.67
2023-09-30T06:58:25.767Z,3.65
2023-09-30T07:03:47.682Z,3.45
2023-09-30T07:09:09.542Z,3.22
2023-09-30T07:14:31.388Z,3.20
2023-09-30T07:19:53.218Z,4.55
2023-09-30T07:25:15.081Z,3.85
2023-09-30T07:30:36.961Z,2.83
2023-09-30T07:35:58.843Z,2.80
2023-09-30T07:41:20.669Z,1.80
2023-09-30T07:46:22.654Z,1.75
2023-09-30T07:51:24.335Z,1.42
2023-09-30T07:56:25.864Z,1.70
2023-09-30T08:01:27.524Z,2.00
2023-09-30T08:06:29.091Z,4.00
2023-09-30T08:11:30.654Z,2.53
2023-09-30T08:16:32.274Z,2.03
2023-09-30T08:21:33.908Z,1.60
2023-09-30T08:26:35.496Z,1.63
2023-09-30T08:31:37.053Z,1.67
2023-09-30T08:36:38.709Z,2.22
2023-09-30T08:41:40.306Z,2.05
2023-09-30T08:46:41.913Z,2.38
2023-09-30T08:51:43.506Z,1.90
2023-09-30T08:56:45.156Z,1.77
2023-09-30T09:01:46.954Z,1.40
2023-09-30T09:06:48.632Z,2.00
2023-09-30T09:11:50.248Z,1.73
2023-09-30T09:16:51.839Z,1.23
2023-09-30T09:21:53.775Z,1.50
2023-09-30T09:26:55.360Z,1.83
2023-09-30T09:31:56.929Z,1.63
2023-09-30T09:36:58.465Z,1.30
2023-09-30T09:42:00.020Z,1.33
2023-09-30T09:47:01.757Z,1.83
2023-09-30T09:52:03.498Z,1.42
2023-09-30T09:57:05.092Z,1.40
2023-09-30T10:02:06.644Z,1.40
2023-09-30T10:07:08.204Z,1.80
2023-09-30T10:12:09.741Z,1.50
2023-09-30T10:17:11.267Z,1.48
2023-09-30T10:22:12.785Z,1.65
2023-09-30T10:27:14.296Z,1.52
2023-09-30T10:32:15.809Z,1.38
2023-09-30T10:37:17.336Z,1.98
2023-09-30T10:42:18.868Z,1.88
2023-09-30T10:47:20.387Z,2.00
2023-09-30T10:52:21.932Z,1.60
2023-09-30T10:57:23.627Z,2.00
2023-09-30T11:02:25.274Z,1.88
2023-09-30T11:07:27.037Z,1.80
2023-09-30T11:12:28.616Z,1.98
2023-09-30T11:17:30.206Z,2.25
2023-09-30T11:22:31.766Z,2.42
2023-09-30T11:27:33.303Z,1.92
2023-09-30T11:32:35.040Z,1.88
2023-09-30T11:37:36.622Z,1.90
2023-09-30T11:42:38.209Z,3.15
2023-09-30T11:47:40.079Z,2.40
2023-09-30T11:52:41.639Z,2.10
2023-09-30T11:57:43.247Z,2.00
2023-09-30T12:02:44.905Z,1.85
2023-09-30T12:07:46.477Z,2.10
2023-09-30T12:12:49.339Z,1.73
2023-09-30T12:17:50.900Z,2.40
2023-09-30T12:22:52.446Z,1.88
2023-09-30T12:27:54.001Z,2.35
2023-09-30T12:32:55.558Z,1.95
2023-09-30T12:37:57.352Z,1.85
2023-09-30T12:42:58.980Z,1.80
2023-09-30T12:48:00.675Z,1.90
2023-09-30T12:53:02.249Z,1.88
2023-09-30T12:58:03.812Z,2.22
2023-09-30T13:03:05.702Z,2.03
2023-09-30T13:08:07.275Z,2.28
2023-09-30T13:13:08.830Z,1.88
2023-09-30T13:18:10.356Z,1.70
2023-09-30T13:23:11.894Z,1.60
2023-09-30T13:28:13.435Z,1.50
2023-09-30T13:33:14.962Z,1.70
2023-09-30T13:38:16.511Z,1.58
2023-09-30T13:43:18.096Z,1.70
2023-09-30T13:48:19.637Z,1.75
2023-09-30T13:53:21.161Z,1.83
2023-09-30T13:58:22.755Z,1.50
2023-09-30T14:03:24.354Z,1.77
2023-09-30T14:08:25.968Z,2.28
2023-09-30T14:13:27.518Z,2.15
2023-09-30T14:18:29.093Z,1.75
2023-09-30T14:23:33.659Z,1.92
2023-09-30T14:28:35.338Z,1.58
2023-09-30T14:33:36.919Z,1.70
2023-09-30T14:38:38.466Z,1.50
2023-09-30T14:43:39.995Z,1.83
2023-09-30T14:48:41.567Z,1.63
2023-09-30T14:53:43.096Z,2.17
2023-09-30T14:58:44.668Z,2.05
2023-09-30T15:03:46.349Z,2.25
2023-09-30T15:08:48.380Z,2.35
2023-09-30T15:13:49.921Z,2.17
2023-09-30T15:18:51.779Z,1.73
2023-09-30T15:23:53.389Z,1.88
2023-09-30T15:28:57.300Z,2.13
2023-09-30T15:33:59.339Z,2.00
2023-09-30T15:39:01.141Z,2.22
2023-09-30T15:44:03.081Z,2.20
2023-09-30T15:49:04.984Z,1.77
2023-09-30T15:54:06.533Z,2.13
2023-09-30T15:59:08.068Z,2.33
2023-09-30T16:04:09.694Z,2.10
2023-09-30T16:09:11.355Z,2.17
2023-09-30T16:14:14.354Z,2.35
2023-09-30T16:19:17.940Z,1.98
2023-09-30T16:24:19.451Z,2.22
2023-09-30T16:29:20.967Z,1.88
2023-09-30T16:34:22.482Z,3.03
2023-09-30T16:39:24.017Z,2.05
2023-09-30T16:44:25.560Z,1.88
2023-09-30T16:49:27.089Z,2.10
2023-09-30T16:54:28.608Z,2.60
2023-09-30T16:59:30.134Z,3.35
2023-09-30T17:04:31.685Z,1.83
2023-09-30T17:09:33.262Z,2.03
2023-09-30T17:14:34.816Z,2.20
2023-09-30T17:19:36.373Z,2.10
2023-09-30T17:24:37.910Z,2.15
2023-09-30T17:29:39.473Z,4.65
2023-09-30T17:34:41.056Z,5.57
2023-09-30T17:39:42.642Z,4.80
2023-09-30T17:44:44.215Z,4.35
2023-09-30T17:49:45.731Z,4.47
2023-09-30T17:54:47.324Z,5.10
2023-09-30T17:59:48.916Z,4.80
2023-09-30T18:04:50.588Z,5.03
2023-09-30T18:09:52.253Z,4.38
2023-09-30T18:14:53.809Z,27.30
2023-09-30T18:19:55.330Z,15.00
2023-09-30T18:24:56.890Z,13.75
2023-09-30T18:29:58.521Z,11.52
2023-09-30T18:35:00.050Z,13.13
2023-09-30T18:40:01.590Z,4.43
2023-09-30T18:45:03.174Z,4.43
2023-09-30T18:50:04.727Z,4.13
2023-09-30T18:55:06.284Z,3.25
2023-09-30T19:00:08.060Z,3.75
2023-09-30T19:05:09.601Z,7.05
2023-09-30T19:10:11.188Z,5.35
2023-09-30T19:15:12.760Z,4.75
2023-09-30T19:20:14.310Z,3.45
2023-09-30T19:25:15.840Z,3.50
2023-09-30T19:30:17.405Z,3.55
2023-09-30T19:35:19.207Z,4.38
2023-09-30T19:40:20.843Z,3.40
2023-09-30T19:45:22.480Z,3.47
2023-09-30T19:50:26.305Z,4.10
2023-09-30T19:55:29.808Z,4.43
2023-09-30T20:00:31.358Z,4.18
2023-09-30T20:05:32.898Z,3.97
2023-09-30T20:10:34.453Z,4.32
2023-09-30T20:15:36.003Z,4.80
2023-09-30T20:20:37.556Z,4.90
2023-09-30T20:25:39.076Z,5.13
2023-09-30T20:30:40.646Z,5.10
2023-09-30T20:35:42.224Z,5.07
2023-09-30T20:40:43.767Z,5.43
2023-09-30T20:45:45.300Z,5.88
2023-09-30T20:50:46.827Z,4.50
2023-09-30T20:55:48.353Z,4.32
2023-09-30T21:00:49.950Z,4.38
2023-09-30T21:05:51.598Z,4.80
2023-09-30T21:10:53.163Z,4.30
2023-09-30T21:15:54.772Z,15.32
2023-09-30T21:20:56.331Z,6.63
2023-09-30T21:25:57.878Z,9.70
2023-09-30T21:30:59.682Z,8.18
2023-09-30T21:36:01.295Z,10.25
2023-09-30T21:41:02.832Z,5.55
2023-09-30T21:46:04.454Z,6.40
2023-09-30T21:51:06.068Z,6.80
2023-09-30T21:56:07.644Z,6.75
2023-09-30T22:01:09.207Z,7.70
2023-09-30T22:06:10.747Z,4.57
2023-09-30T22:11:12.489Z,8.32
2023-09-30T22:16:14.065Z,10.15
2023-09-30T22:21:15.634Z,6.35
2023-09-30T22:26:17.153Z,5.13
2023-09-30T22:31:18.759Z,4.30
2023-09-30T22:36:21.849Z,4.50
2023-09-30T22:41:26.820Z,4.03
2023-09-30T22:46:28.460Z,4.70
2023-09-30T22:51:30.044Z,4.90
2023-09-30T22:56:31.602Z,5.72
2023-09-30T23:01:33.262Z,5.75
2023-09-30T23:06:34.861Z,6.18
2023-09-30T23:11:36.409Z,4.88
2023-09-30T23:16:38.245Z,5.28
2023-09-30T23:21:39.860Z,5.15
2023-09-30T23:26:41.385Z,5.38
2023-09-30T23:31:42.990Z,5.93
2023-09-30T23:36:44.620Z,4.95
2023-09-30T23:41:46.190Z,5.50
2023-09-30T23:46:47.847Z,5.85
2023-09-30T23:51:49.492Z,8.10
2023-09-30T23:56:51.025Z,8.68
